CheckWX is a tool to help pilots better visualize weather data.  It is not intended as a substitute for an official pre-flight weather briefing.

12:45:46 UTC

LIRM TAF
Grazzanise Airport
Caserta, Italy
TAF LIRM 221100Z 2212/2221 06018KT CAVOK

Mar-22@
12:00 UTC

Mar-22 @ 12:00 UTC

Mar-22@
21:00 UTC

Mar-22 @ 21:00 UTC

TAF LIRM 221100Z 2212/2221 06018KT CAVOK
Wind
  • 060° at 18 KTS
Conditions
No significant weather
Cloud Levels
  • No significant clouds